Arrow Post — CG2882 — position and weather

sailwx.info

Track history (hours):
 
Tides and Currents Weather Stations Pressure Air Temp Water Temp Dewpoint Dewpoint Depression Visibility Wind Speed Wind Dir Waves Ship Positions

Arrow Post

Last reported at 2014-Oct-24 20:32 UTC. Time now 2014-Oct-24 21:26 UTC.
Position N 49°25' W 124°34'.

Length 29 m; draft 3.5 m.

Type: SAR. MMSI: 316001090.

Date/timePositionNaut miles runAvg speedWind from/ knotsBaromVisibWave heightAir tempDewpointWater temp
2014-Oct-24 20:32N 49°25' W 124°34'6 5.7
2014-Oct-24 19:33N 49°28' W 124°41'9 8.5
2014-Oct-24 18:31N 49°36' W 124°47'6 5.7
2014-Oct-24 17:33N 49°40' W 124°52'8 8.1
2014-Oct-24 16:32N 49°36' W 124°42'1010.0
2014-Oct-24 15:33N 49°31' W 124°28'5 5.1
2014-Oct-24 14:33N 49°29' W 124°21'0 0.0
2014-Oct-24 13:33N 49°29' W 124°21'0 0.0
2014-Oct-24 12:34N 49°29' W 124°21'0 0.0
2014-Oct-24 11:33N 49°29' W 124°21'0 0.0
2014-Oct-24 10:33N 49°29' W 124°21'0 0.0
2014-Oct-24 09:33N 49°29' W 124°21'0 0.0
2014-Oct-24 08:33N 49°29' W 124°21'0 0.0
2014-Oct-24 07:33N 49°29' W 124°21'0 0.0
2014-Oct-24 06:34N 49°29' W 124°21'0 0.0
2014-Oct-24 05:33N 49°29' W 124°21'0 0.0
2014-Oct-24 04:33N 49°29' W 124°21'0 0.0
2014-Oct-24 03:33N 49°29' W 124°21'0 0.0
2014-Oct-24 02:34N 49°29' W 124°21'0 0.0
2014-Oct-24 01:33N 49°29' W 124°21'0 0.0
2014-Oct-24 00:33N 49°29' W 124°21'0 0.0
2014-Oct-23 23:33N 49°29' W 124°21'2 2.2
2014-Oct-23 22:33N 49°30' W 124°24'8 8.4
2014-Oct-23 21:33N 49°31' W 124°11'5 5.4
2014-Oct-23 20:33N 49°26' W 124°15'1010.0
2014-Oct-23 19:33N 49°27' W 124°31'14 4.7
2014-Oct-23 16:29N 49°33' W 124°51'8 8.2
2014-Oct-23 15:30N 49°29' W 124°40'3 2.5
2014-Oct-23 14:12N 49°31' W 124°43'0 0.0
2014-Oct-23 13:20N 49°31' W 124°43'0 0.0
2014-Oct-23 10:21N 49°31' W 124°43'0 0.0
2014-Oct-23 09:20N 49°31' W 124°43'0 0.0
2014-Oct-23 08:08N 49°31' W 124°43'0 0.0
2014-Oct-23 07:32N 49°31' W 124°43'0 0.0
2014-Oct-23 04:21N 49°31' W 124°43'0 0.0
2014-Oct-23 03:30N 49°31' W 124°43'0 0.0
2014-Oct-23 02:31N 49°31' W 124°43'0 0.0
2014-Oct-23 01:23N 49°31' W 124°43'0 0.0
2014-Oct-23 00:06N 49°31' W 124°43'3 4.6
2014-Oct-22 23:33N 49°34' W 124°44'10 9.8
2014-Oct-22 22:33N 49°43' W 124°49'9 9.1
2014-Oct-22 21:31N 49°50' W 124°59'1110.0
2014-Oct-22 20:28N 49°58' W 125°10'14 0.3
2014-Oct-20 22:15N 50°10' W 125°21'0 0.5
2014-Oct-20 21:29N 50°10' W 125°20'1 0.9
2014-Oct-20 20:18N 50°11' W 125°21'5 7.0
2014-Oct-20 19:33N 50°16' W 125°24'3 1.9
2014-Oct-20 18:12N 50°18' W 125°25'4 5.6
2014-Oct-20 17:33N 50°15' W 125°23'4 4.0
2014-Oct-20 16:33N 50°11' W 125°22'1 0.0
2014-Oct-19 22:18N 50°11' W 125°21'1 0.8
2014-Oct-19 21:24N 50°11' W 125°20'0 0.0
2014-Oct-19 20:31N 50°11' W 125°20'2 1.0
2014-Oct-19 18:04N 50°13' W 125°22'4 7.5
2014-Oct-19 17:31N 50°17' W 125°24'1 1.1
2014-Oct-19 16:28N 50°16' W 125°24'31 1.6
2014-Oct-18 20:29N 49°50' W 124°57'1210.8
2014-Oct-18 19:20N 49°39' W 124°47'911.1
2014-Oct-18 18:31N 49°31' W 124°43'4 4.6
2014-Oct-18 17:33N 49°32' W 124°36'5 4.7
2014-Oct-18 16:31N 49°28' W 124°41'0 0.4
2014-Oct-18 15:33N 49°28' W 124°41'2 0.3
2014-Oct-18 07:25N 49°28' W 124°45'1 0.1
2014-Oct-18 00:33N 49°29' W 124°44'1010.2
2014-Oct-17 23:33N 49°27' W 124°28'1010.6
2014-Oct-17 22:34N 49°22' W 124°14'1010.4
2014-Oct-17 21:34N 49°16' W 124°01'7 6.2
2014-Oct-17 20:28N 49°10' W 123°56'0 0.0
2014-Oct-17 19:28N 49°10' W 123°56'0 0.0
2014-Oct-17 18:22N 49°10' W 123°56'0 0.0
2014-Oct-17 17:28N 49°10' W 123°56'0 0.0
2014-Oct-17 16:28N 49°10' W 123°56'0 0.0
2014-Oct-17 15:22N 49°10' W 123°56'0 0.0
2014-Oct-17 14:28N 49°10' W 123°56'0 0.0
2014-Oct-17 13:28N 49°10' W 123°56'0 0.0
2014-Oct-17 12:28N 49°10' W 123°56'0 0.0
2014-Oct-17 11:28N 49°10' W 123°56'0 0.0
2014-Oct-17 10:22N 49°10' W 123°56'0 0.0
2014-Oct-17 09:28N 49°10' W 123°56'0 0.0
2014-Oct-17 08:31N 49°10' W 123°56'0 0.0
2014-Oct-17 07:31N 49°10' W 123°56'0 0.0
2014-Oct-17 06:31N 49°10' W 123°56'0 0.0
2014-Oct-17 05:31N 49°10' W 123°56'0 0.0
2014-Oct-17 04:25N 49°10' W 123°56'0 0.0
2014-Oct-17 03:31N 49°10' W 123°56'0 0.0
2014-Oct-17 02:28N 49°10' W 123°56'0 0.0
2014-Oct-17 01:28N 49°10' W 123°56'5 5.6
2014-Oct-17 00:29N 49°12' W 123°48'9 9.8
2014-Oct-16 23:33N 49°08' W 123°36'1110.6
2014-Oct-16 22:33N 48°60' W 123°25'9 9.3
2014-Oct-16 21:33N 48°52' W 123°19'8 7.7
2014-Oct-16 20:30N 48°44' W 123°24'6 2.6
2014-Oct-16 18:21N 48°39' W 123°27'0 0.0
2014-Oct-16 17:21N 48°39' W 123°27'0 0.0
2014-Oct-16 15:27N 48°39' W 123°27'0 0.0
2014-Oct-16 13:33N 48°39' W 123°27'0 0.0
2014-Oct-16 12:15N 48°39' W 123°27'0 0.0
2014-Oct-16 11:27N 48°39' W 123°27'0 0.0
2014-Oct-16 10:33N 48°39' W 123°27'0 0.0
2014-Oct-16 08:27N 48°39' W 123°27'0 0.0
2014-Oct-16 07:15N 48°39' W 123°27'0 0.0
2014-Oct-16 04:21N 48°39' W 123°27'0 0.0
2014-Oct-16 03:33N 48°39' W 123°27'0 0.0
2014-Oct-16 02:33N 48°39' W 123°27'0 0.0
2014-Oct-16 01:15N 48°39' W 123°27'0 0.0
2014-Oct-16 00:27N 48°39' W 123°27'0 0.0
2014-Oct-15 22:33N 48°39' W 123°27'0 0.0
2014-Oct-15 21:09N 48°39' W 123°27'0 0.0
2014-Oct-15 20:33N 48°39' W 123°27'0 0.0
2014-Oct-15 19:21N 48°39' W 123°27'0 0.0
2014-Oct-15 18:15N 48°39' W 123°27'0 0.0
2014-Oct-15 17:33N 48°39' W 123°27'0 0.0
2014-Oct-15 16:21N 48°39' W 123°27'0 0.0
2014-Oct-15 13:27N 48°39' W 123°27'0 0.0
2014-Oct-15 12:33N 48°39' W 123°27'0 0.0
2014-Oct-15 11:27N 48°39' W 123°27'0 0.0
2014-Oct-15 10:15N 48°39' W 123°27'0 0.0
2014-Oct-15 08:27N 48°39' W 123°27'0 0.0
2014-Oct-15 05:33N 48°39' W 123°27'0 0.0
2014-Oct-15 04:15N 48°39' W 123°27'0 0.0
2014-Oct-15 03:21N 48°39' W 123°27'0 0.0
2014-Oct-15 01:33N 48°39' W 123°27'0 0.0
2014-Oct-15 00:33N 48°39' W 123°27'0 0.0
2014-Oct-14 23:27N 48°39' W 123°27'0 0.0
2014-Oct-14 22:09N 48°39' W 123°27'0 0.0
2014-Oct-14 21:33N 48°39' W 123°27'  
Track history (hours):
 
Tides and Currents Weather Stations Pressure Air Temp Water Temp Dewpoint Dewpoint Depression Visibility Wind Speed Wind Dir Waves Ship Positions

Arrow Post

Last reported at 2014-Oct-24 20:32 UTC. Time now 2014-Oct-24 21:26 UTC.
Position N 49°25' W 124°34'.

Length 29 m; draft 3.5 m.

Type: SAR. MMSI: 316001090.

Date/timePositionNaut miles runAvg speedWind from/ knotsBaromVisibWave heightAir tempDewpointWater temp
2014-Oct-24 20:32N 49°25' W 124°34'6 5.7
2014-Oct-24 19:33N 49°28' W 124°41'9 8.5
2014-Oct-24 18:31N 49°36' W 124°47'6 5.7
2014-Oct-24 17:33N 49°40' W 124°52'8 8.1
2014-Oct-24 16:32N 49°36' W 124°42'1010.0
2014-Oct-24 15:33N 49°31' W 124°28'5 5.1
2014-Oct-24 14:33N 49°29' W 124°21'0 0.0
2014-Oct-24 13:33N 49°29' W 124°21'0 0.0
2014-Oct-24 12:34N 49°29' W 124°21'0 0.0
2014-Oct-24 11:33N 49°29' W 124°21'0 0.0
2014-Oct-24 10:33N 49°29' W 124°21'0 0.0
2014-Oct-24 09:33N 49°29' W 124°21'0 0.0
2014-Oct-24 08:33N 49°29' W 124°21'0 0.0
2014-Oct-24 07:33N 49°29' W 124°21'0 0.0
2014-Oct-24 06:34N 49°29' W 124°21'0 0.0
2014-Oct-24 05:33N 49°29' W 124°21'0 0.0
2014-Oct-24 04:33N 49°29' W 124°21'0 0.0
2014-Oct-24 03:33N 49°29' W 124°21'0 0.0
2014-Oct-24 02:34N 49°29' W 124°21'0 0.0
2014-Oct-24 01:33N 49°29' W 124°21'0 0.0
2014-Oct-24 00:33N 49°29' W 124°21'0 0.0
2014-Oct-23 23:33N 49°29' W 124°21'2 2.2
2014-Oct-23 22:33N 49°30' W 124°24'8 8.4
2014-Oct-23 21:33N 49°31' W 124°11'5 5.4
2014-Oct-23 20:33N 49°26' W 124°15'1010.0
2014-Oct-23 19:33N 49°27' W 124°31'14 4.7
2014-Oct-23 16:29N 49°33' W 124°51'8 8.2
2014-Oct-23 15:30N 49°29' W 124°40'3 2.5
2014-Oct-23 14:12N 49°31' W 124°43'0 0.0
2014-Oct-23 13:20N 49°31' W 124°43'0 0.0
2014-Oct-23 10:21N 49°31' W 124°43'0 0.0
2014-Oct-23 09:20N 49°31' W 124°43'0 0.0
2014-Oct-23 08:08N 49°31' W 124°43'0 0.0
2014-Oct-23 07:32N 49°31' W 124°43'0 0.0
2014-Oct-23 04:21N 49°31' W 124°43'0 0.0
2014-Oct-23 03:30N 49°31' W 124°43'0 0.0
2014-Oct-23 02:31N 49°31' W 124°43'0 0.0
2014-Oct-23 01:23N 49°31' W 124°43'0 0.0
2014-Oct-23 00:06N 49°31' W 124°43'3 4.6
2014-Oct-22 23:33N 49°34' W 124°44'10 9.8
2014-Oct-22 22:33N 49°43' W 124°49'9 9.1
2014-Oct-22 21:31N 49°50' W 124°59'1110.0
2014-Oct-22 20:28N 49°58' W 125°10'14 0.3
2014-Oct-20 22:15N 50°10' W 125°21'0 0.5
2014-Oct-20 21:29N 50°10' W 125°20'1 0.9
2014-Oct-20 20:18N 50°11' W 125°21'5 7.0
2014-Oct-20 19:33N 50°16' W 125°24'3 1.9
2014-Oct-20 18:12N 50°18' W 125°25'4 5.6
2014-Oct-20 17:33N 50°15' W 125°23'4 4.0
2014-Oct-20 16:33N 50°11' W 125°22'1 0.0
2014-Oct-19 22:18N 50°11' W 125°21'1 0.8
2014-Oct-19 21:24N 50°11' W 125°20'0 0.0
2014-Oct-19 20:31N 50°11' W 125°20'2 1.0
2014-Oct-19 18:04N 50°13' W 125°22'4 7.5
2014-Oct-19 17:31N 50°17' W 125°24'1 1.1
2014-Oct-19 16:28N 50°16' W 125°24'31 1.6
2014-Oct-18 20:29N 49°50' W 124°57'1210.8
2014-Oct-18 19:20N 49°39' W 124°47'911.1
2014-Oct-18 18:31N 49°31' W 124°43'4 4.6
2014-Oct-18 17:33N 49°32' W 124°36'5 4.7
2014-Oct-18 16:31N 49°28' W 124°41'0 0.4
2014-Oct-18 15:33N 49°28' W 124°41'2 0.3
2014-Oct-18 07:25N 49°28' W 124°45'1 0.1
2014-Oct-18 00:33N 49°29' W 124°44'1010.2
2014-Oct-17 23:33N 49°27' W 124°28'1010.6
2014-Oct-17 22:34N 49°22' W 124°14'1010.4
2014-Oct-17 21:34N 49°16' W 124°01'7 6.2
2014-Oct-17 20:28N 49°10' W 123°56'0 0.0
2014-Oct-17 19:28N 49°10' W 123°56'0 0.0
2014-Oct-17 18:22N 49°10' W 123°56'0 0.0
2014-Oct-17 17:28N 49°10' W 123°56'0 0.0
2014-Oct-17 16:28N 49°10' W 123°56'0 0.0
2014-Oct-17 15:22N 49°10' W 123°56'0 0.0
2014-Oct-17 14:28N 49°10' W 123°56'0 0.0
2014-Oct-17 13:28N 49°10' W 123°56'0 0.0
2014-Oct-17 12:28N 49°10' W 123°56'0 0.0
2014-Oct-17 11:28N 49°10' W 123°56'0 0.0
2014-Oct-17 10:22N 49°10' W 123°56'0 0.0
2014-Oct-17 09:28N 49°10' W 123°56'0 0.0
2014-Oct-17 08:31N 49°10' W 123°56'0 0.0
2014-Oct-17 07:31N 49°10' W 123°56'0 0.0
2014-Oct-17 06:31N 49°10' W 123°56'0 0.0
2014-Oct-17 05:31N 49°10' W 123°56'0 0.0
2014-Oct-17 04:25N 49°10' W 123°56'0 0.0
2014-Oct-17 03:31N 49°10' W 123°56'0 0.0
2014-Oct-17 02:28N 49°10' W 123°56'0 0.0
2014-Oct-17 01:28N 49°10' W 123°56'5 5.6
2014-Oct-17 00:29N 49°12' W 123°48'9 9.8
2014-Oct-16 23:33N 49°08' W 123°36'1110.6
2014-Oct-16 22:33N 48°60' W 123°25'9 9.3
2014-Oct-16 21:33N 48°52' W 123°19'8 7.7
2014-Oct-16 20:30N 48°44' W 123°24'6 2.6
2014-Oct-16 18:21N 48°39' W 123°27'0 0.0
2014-Oct-16 17:21N 48°39' W 123°27'0 0.0
2014-Oct-16 15:27N 48°39' W 123°27'0 0.0
2014-Oct-16 13:33N 48°39' W 123°27'0 0.0
2014-Oct-16 12:15N 48°39' W 123°27'0 0.0
2014-Oct-16 11:27N 48°39' W 123°27'0 0.0
2014-Oct-16 10:33N 48°39' W 123°27'0 0.0
2014-Oct-16 08:27N 48°39' W 123°27'0 0.0
2014-Oct-16 07:15N 48°39' W 123°27'0 0.0
2014-Oct-16 04:21N 48°39' W 123°27'0 0.0
2014-Oct-16 03:33N 48°39' W 123°27'0 0.0
2014-Oct-16 02:33N 48°39' W 123°27'0 0.0
2014-Oct-16 01:15N 48°39' W 123°27'0 0.0
2014-Oct-16 00:27N 48°39' W 123°27'0 0.0
2014-Oct-15 22:33N 48°39' W 123°27'0 0.0
2014-Oct-15 21:09N 48°39' W 123°27'0 0.0
2014-Oct-15 20:33N 48°39' W 123°27'0 0.0
2014-Oct-15 19:21N 48°39' W 123°27'0 0.0
2014-Oct-15 18:15N 48°39' W 123°27'0 0.0
2014-Oct-15 17:33N 48°39' W 123°27'0 0.0
2014-Oct-15 16:21N 48°39' W 123°27'0 0.0
2014-Oct-15 13:27N 48°39' W 123°27'0 0.0
2014-Oct-15 12:33N 48°39' W 123°27'0 0.0
2014-Oct-15 11:27N 48°39' W 123°27'0 0.0
2014-Oct-15 10:15N 48°39' W 123°27'0 0.0
2014-Oct-15 08:27N 48°39' W 123°27'0 0.0
2014-Oct-15 05:33N 48°39' W 123°27'0 0.0
2014-Oct-15 04:15N 48°39' W 123°27'0 0.0
2014-Oct-15 03:21N 48°39' W 123°27'0 0.0
2014-Oct-15 01:33N 48°39' W 123°27'0 0.0
2014-Oct-15 00:33N 48°39' W 123°27'0 0.0
2014-Oct-14 23:27N 48°39' W 123°27'0 0.0
2014-Oct-14 22:09N 48°39' W 123°27'0 0.0
2014-Oct-14 21:33N 48°39' W 123°27'  

Dump ship's entire track history